Time;durP1;ratioP1;P1;durP2;ratioP2;P2;SDS_P1;SDS_P2;PMS_P1;PMS_P2;Temp;Humidity;BMP_temperature;BMP_pressure;BME280_temperature;BME280_humidity;BME280_pressure;Samples;Min_cycle;Max_cycle;Signal;HPM_P1;HPM_P2
2022/12/07 00:01:31;;;;;;;;;;;2.40;99.90;;;;;;5084571;28;19951;-70
2022/12/07 00:04:04;;;;;;;;;;;2.40;99.90;;;;;;5085133;28;19979;-69
2022/12/07 00:06:31;;;;;;;;;;;2.40;99.90;;;;;;5084254;28;19942;-69
2022/12/07 00:08:58;;;;;;;;;;;2.40;99.90;;;;;;5084866;28;19952;-70
2022/12/07 00:11:26;;;;;;;;;;;2.40;99.90;;;;;;5084509;28;20278;-69
2022/12/07 00:13:53;;;;;;;;;;;2.40;99.90;;;;;;5084851;28;20255;-70
2022/12/07 00:16:20;;;;;;;;;;;2.40;99.90;;;;;;5084141;28;19967;-70
2022/12/07 00:18:47;;;;;;;;;;;2.40;99.90;;;;;;5084344;28;19995;-70
2022/12/07 00:21:14;;;;;;;;;;;2.40;99.90;;;;;;5084740;28;19952;-70
2022/12/07 00:23:42;;;;;;;;;;;2.30;99.90;;;;;;5084131;28;20208;-70
2022/12/07 00:26:10;;;;;;;;;;;2.40;99.90;;;;;;5083654;28;19960;-68
2022/12/07 00:28:38;;;;;;;;;;;2.40;99.90;;;;;;5083946;28;19954;-68
2022/12/07 00:31:06;;;;;;;;;;;2.40;99.90;;;;;;5084120;28;20278;-70
2022/12/07 00:33:33;;;;;;;;;;;2.40;99.90;;;;;;5081688;28;19956;-70
2022/12/07 00:36:00;;;;;;;;;;;2.40;99.90;;;;;;5083830;28;19974;-70
2022/12/07 00:38:28;;;;;;;;;;;2.30;99.90;;;;;;5084263;28;20195;-70
2022/12/07 00:40:56;;;;;;;;;;;2.40;99.90;;;;;;5084609;28;20263;-69
2022/12/07 00:43:24;;;;;;;;;;;2.40;99.90;;;;;;5085585;28;19921;-72
2022/12/07 00:45:52;;;;;;;;;;;2.40;99.90;;;;;;5083521;28;19927;-70
2022/12/07 00:48:18;;;;;;;;;;;2.30;99.90;;;;;;5083444;28;19987;-70
2022/12/07 00:50:45;;;;;;;;;;;2.40;99.90;;;;;;5083429;28;19992;-69
2022/12/07 00:53:12;;;;;;;;;;;2.30;99.90;;;;;;5084075;28;19954;-70
2022/12/07 00:55:38;;;;;;;;;;;2.20;99.90;;;;;;5083922;28;19952;-70
2022/12/07 00:58:05;;;;;;;;;;;2.30;99.90;;;;;;5083705;28;20015;-70
2022/12/07 01:00:32;;;;;;;;;;;2.20;99.90;;;;;;5083697;28;19927;-70
2022/12/07 01:03:00;;;;;;;;;;;2.20;99.90;;;;;;5083854;28;20154;-70
2022/12/07 01:05:27;;;;;;;;;;;2.30;99.90;;;;;;5083950;28;19983;-70
2022/12/07 01:07:53;;;;;;;;;;;2.30;99.90;;;;;;5083100;28;20200;-69
2022/12/07 01:10:20;;;;;;;;;;;2.20;99.90;;;;;;5083994;28;19959;-71
2022/12/07 01:12:47;;;;;;;;;;;2.20;99.90;;;;;;5083829;28;20171;-70
2022/12/07 01:15:14;;;;;;;;;;;2.30;99.90;;;;;;5083782;28;19921;-71
2022/12/07 01:17:40;;;;;;;;;;;2.30;99.90;;;;;;5083353;28;19955;-70
2022/12/07 01:20:09;;;;;;;;;;;2.30;99.90;;;;;;5083884;28;19959;-71
2022/12/07 01:22:37;;;;;;;;;;;2.30;99.90;;;;;;5083478;28;19951;-69
2022/12/07 01:25:04;;;;;;;;;;;2.30;99.90;;;;;;5083358;28;19983;-70
2022/12/07 01:27:30;;;;;;;;;;;2.30;99.90;;;;;;5082812;28;19951;-70
2022/12/07 01:29:57;;;;;;;;;;;2.20;99.90;;;;;;5083408;28;19999;-70
2022/12/07 01:32:24;;;;;;;;;;;2.30;99.90;;;;;;5083350;28;20227;-70
2022/12/07 01:34:50;;;;;;;;;;;2.30;99.90;;;;;;5083578;28;19956;-69
2022/12/07 01:37:18;;;;;;;;;;;2.30;99.90;;;;;;5083162;28;19959;-70
2022/12/07 01:39:45;;;;;;;;;;;2.30;99.90;;;;;;5083196;28;19962;-70
2022/12/07 01:42:13;;;;;;;;;;;2.30;99.90;;;;;;5080745;28;20163;-70
2022/12/07 01:44:55;;;;;;;;;;;2.20;99.90;;;;;;5082958;28;19988;-70
2022/12/07 01:47:22;;;;;;;;;;;2.30;99.90;;;;;;5081845;28;19987;-70
2022/12/07 01:49:49;;;;;;;;;;;2.30;99.90;;;;;;5083510;28;19983;-71
2022/12/07 01:52:17;;;;;;;;;;;2.20;99.90;;;;;;5083463;28;20112;-71
2022/12/07 01:54:46;;;;;;;;;;;2.20;99.90;;;;;;5082960;28;19927;-70
2022/12/07 01:57:14;;;;;;;;;;;2.20;99.90;;;;;;5082781;28;19920;-70
2022/12/07 01:59:42;;;;;;;;;;;2.20;99.90;;;;;;5082927;28;19921;-69
2022/12/07 02:02:11;;;;;;;;;;;2.30;99.90;;;;;;5085604;28;19952;-71
2022/12/07 02:04:37;;;;;;;;;;;2.30;99.90;;;;;;5087131;28;20193;-69
2022/12/07 02:07:05;;;;;;;;;;;2.20;99.90;;;;;;5086750;28;19955;-73
2022/12/07 02:09:32;;;;;;;;;;;2.30;99.90;;;;;;5086886;28;19966;-68
2022/12/07 02:12:00;;;;;;;;;;;2.20;99.90;;;;;;5086737;28;20224;-70
2022/12/07 02:14:27;;;;;;;;;;;2.20;99.90;;;;;;5087175;28;19983;-70
2022/12/07 02:17:00;;;;;;;;;;;2.20;99.90;;;;;;5086056;28;20212;-70
2022/12/07 02:19:45;;;;;;;;;;;2.20;99.90;;;;;;5086717;28;19920;-72
2022/12/07 02:22:19;;;;;;;;;;;2.20;99.90;;;;;;5086683;28;19955;-70
2022/12/07 02:24:53;;;;;;;;;;;2.30;99.90;;;;;;5087062;28;20093;-70
2022/12/07 02:27:35;;;;;;;;;;;2.30;99.90;;;;;;5086091;28;19921;-71
2022/12/07 02:30:04;;;;;;;;;;;2.20;99.90;;;;;;5086805;28;20108;-70
2022/12/07 02:32:40;;;;;;;;;;;2.20;99.90;;;;;;5083926;28;19936;-70
2022/12/07 02:35:09;;;;;;;;;;;2.20;99.90;;;;;;5086503;28;19927;-70
2022/12/07 02:37:39;;;;;;;;;;;2.20;99.90;;;;;;5086324;28;19967;-69
2022/12/07 02:40:10;;;;;;;;;;;2.20;99.90;;;;;;5086843;28;20184;-71
2022/12/07 02:42:39;;;;;;;;;;;2.10;99.90;;;;;;5084015;28;20144;-70
2022/12/07 02:45:08;;;;;;;;;;;2.20;99.90;;;;;;5086566;28;19955;-70
2022/12/07 02:47:35;;;;;;;;;;;2.10;99.90;;;;;;5085777;28;20195;-70
2022/12/07 02:50:03;;;;;;;;;;;2.10;99.90;;;;;;5086426;28;20271;-70
2022/12/07 02:52:30;;;;;;;;;;;2.10;99.90;;;;;;5086450;28;20152;-70
2022/12/07 02:54:56;;;;;;;;;;;2.10;99.90;;;;;;5086506;28;19951;-71
2022/12/07 02:57:30;;;;;;;;;;;2.10;99.90;;;;;;5085928;28;19960;-70
2022/12/07 03:00:02;;;;;;;;;;;2.00;99.90;;;;;;5086251;28;20179;-68
2022/12/07 03:02:33;;;;;;;;;;;1.90;99.90;;;;;;5086332;28;20164;-69
2022/12/07 03:05:08;;;;;;;;;;;1.90;99.90;;;;;;5086217;28;19959;-70
2022/12/07 03:07:36;;;;;;;;;;;1.90;99.90;;;;;;5085480;28;20277;-71
2022/12/07 03:10:08;;;;;;;;;;;1.80;99.90;;;;;;5085766;28;20424;-72
2022/12/07 03:12:38;;;;;;;;;;;1.70;99.90;;;;;;5085294;28;19951;-70
2022/12/07 03:15:06;;;;;;;;;;;1.70;99.90;;;;;;5085490;28;19983;-72
2022/12/07 03:17:35;;;;;;;;;;;1.60;99.90;;;;;;5085281;28;19925;-69
2022/12/07 03:20:04;;;;;;;;;;;1.60;99.90;;;;;;5085804;28;20175;-70
2022/12/07 03:22:33;;;;;;;;;;;1.50;99.90;;;;;;5085602;28;19976;-69
2022/12/07 03:25:01;;;;;;;;;;;1.50;99.90;;;;;;5085826;28;19975;-71
2022/12/07 03:27:30;;;;;;;;;;;1.50;99.90;;;;;;5085262;28;19970;-71
2022/12/07 03:29:58;;;;;;;;;;;1.50;99.90;;;;;;5085737;28;19952;-69
2022/12/07 03:32:31;;;;;;;;;;;1.50;99.90;;;;;;5083801;28;19925;-72
2022/12/07 03:35:02;;;;;;;;;;;1.50;99.90;;;;;;5085302;28;20376;-69
2022/12/07 03:37:32;;;;;;;;;;;1.50;99.90;;;;;;5085074;28;20167;-69
2022/12/07 03:40:03;;;;;;;;;;;1.50;99.90;;;;;;5085563;28;19920;-70
2022/12/07 03:42:32;;;;;;;;;;;1.50;99.90;;;;;;5096861;28;19988;-69
2022/12/07 03:44:59;;;;;;;;;;;1.50;99.90;;;;;;5105998;28;19951;-69
2022/12/07 03:47:28;;;;;;;;;;;1.50;99.90;;;;;;5105054;28;20021;-68
2022/12/07 03:49:57;;;;;;;;;;;1.50;99.90;;;;;;5105602;28;19947;-69
2022/12/07 03:52:29;;;;;;;;;;;1.40;99.90;;;;;;5105330;28;20226;-68
2022/12/07 03:54:59;;;;;;;;;;;1.50;99.90;;;;;;5105569;28;19952;-69
2022/12/07 03:57:27;;;;;;;;;;;1.40;99.90;;;;;;5104992;28;20207;-68
2022/12/07 03:59:55;;;;;;;;;;;1.50;99.90;;;;;;5105531;28;19951;-69
2022/12/07 04:02:23;;;;;;;;;;;1.50;99.90;;;;;;5105350;28;19952;-69
2022/12/07 04:04:50;;;;;;;;;;;1.50;99.90;;;;;;5104956;28;19992;-69
2022/12/07 04:07:16;;;;;;;;;;;1.50;99.90;;;;;;5104718;28;19955;-70
2022/12/07 04:09:44;;;;;;;;;;;1.40;99.90;;;;;;5105537;28;19983;-69
2022/12/07 04:12:11;;;;;;;;;;;1.40;99.90;;;;;;5112141;28;20183;-68
2022/12/07 04:14:37;;;;;;;;;;;1.40;99.90;;;;;;5111998;28;19952;-69
2022/12/07 04:17:04;;;;;;;;;;;1.40;99.90;;;;;;5110115;28;19966;-70
2022/12/07 04:19:32;;;;;;;;;;;1.40;99.90;;;;;;5104850;28;19943;-70
2022/12/07 04:21:59;;;;;;;;;;;1.40;99.90;;;;;;5105039;28;20033;-70
2022/12/07 04:24:26;;;;;;;;;;;1.40;99.90;;;;;;5105142;28;19987;-70
2022/12/07 04:26:54;;;;;;;;;;;1.30;99.90;;;;;;5103905;28;19978;-70
2022/12/07 04:29:21;;;;;;;;;;;1.30;99.90;;;;;;5104666;28;19947;-70
2022/12/07 04:31:48;;;;;;;;;;;1.30;99.90;;;;;;5104326;28;20287;-70
2022/12/07 04:34:15;;;;;;;;;;;1.30;99.90;;;;;;5105105;28;19985;-70
2022/12/07 04:36:42;;;;;;;;;;;1.30;99.90;;;;;;5104156;28;19920;-70
2022/12/07 04:39:14;;;;;;;;;;;1.30;99.90;;;;;;5104838;28;19920;-70
2022/12/07 04:41:41;;;;;;;;;;;1.20;99.90;;;;;;5102187;28;19966;-69
2022/12/07 04:44:09;;;;;;;;;;;1.30;99.90;;;;;;5104613;28;19967;-70
2022/12/07 04:46:35;;;;;;;;;;;1.30;99.90;;;;;;5104048;28;20155;-69
2022/12/07 04:49:02;;;;;;;;;;;1.20;99.90;;;;;;5104598;28;20124;-70
2022/12/07 04:51:29;;;;;;;;;;;1.30;99.90;;;;;;5104507;28;19987;-70
2022/12/07 04:53:56;;;;;;;;;;;1.30;99.90;;;;;;5104379;28;19991;-70
2022/12/07 04:56:24;;;;;;;;;;;1.20;99.90;;;;;;5103943;28;19983;-69
2022/12/07 04:58:51;;;;;;;;;;;1.20;99.90;;;;;;5104471;28;20010;-69
2022/12/07 05:01:20;;;;;;;;;;;1.20;99.90;;;;;;5104461;28;19987;-69
2022/12/07 05:03:47;;;;;;;;;;;1.20;99.90;;;;;;5104495;28;19963;-69
2022/12/07 05:06:14;;;;;;;;;;;1.20;99.90;;;;;;5103724;28;19920;-70
2022/12/07 05:08:41;;;;;;;;;;;1.30;99.90;;;;;;5104040;28;19963;-70
2022/12/07 05:11:08;;;;;;;;;;;1.30;99.90;;;;;;5104298;28;19921;-70
2022/12/07 05:13:35;;;;;;;;;;;1.30;99.90;;;;;;5104279;28;20231;-70
2022/12/07 05:16:02;;;;;;;;;;;1.30;99.90;;;;;;5103802;28;19970;-70
2022/12/07 05:18:30;;;;;;;;;;;1.30;99.90;;;;;;5104228;28;19979;-70
2022/12/07 05:20:57;;;;;;;;;;;1.30;99.90;;;;;;5104289;28;19956;-70
2022/12/07 05:23:23;;;;;;;;;;;1.40;99.90;;;;;;5104048;28;19952;-70
2022/12/07 05:25:50;;;;;;;;;;;1.40;99.90;;;;;;5103659;28;20216;-69
2022/12/07 05:28:16;;;;;;;;;;;1.40;99.90;;;;;;5103765;28;20223;-70
2022/12/07 05:30:43;;;;;;;;;;;1.40;99.90;;;;;;5104088;28;19995;-72
2022/12/07 05:33:10;;;;;;;;;;;1.40;99.90;;;;;;5103756;28;20211;-70
2022/12/07 05:35:38;;;;;;;;;;;1.30;99.90;;;;;;5104174;28;19920;-69
2022/12/07 05:38:05;;;;;;;;;;;1.30;99.90;;;;;;5109769;28;20269;-69
2022/12/07 05:40:32;;;;;;;;;;;1.40;99.90;;;;;;5110776;28;19920;-70
2022/12/07 05:42:58;;;;;;;;;;;1.40;99.90;;;;;;5110631;28;19920;-71
2022/12/07 05:45:25;;;;;;;;;;;1.30;99.90;;;;;;5110386;28;19987;-70
2022/12/07 05:47:51;;;;;;;;;;;1.30;99.90;;;;;;5110012;28;19927;-71
2022/12/07 05:50:20;;;;;;;;;;;1.40;99.90;;;;;;5109181;28;20001;-69
2022/12/07 05:52:50;;;;;;;;;;;1.40;99.90;;;;;;5107636;28;19994;-70
2022/12/07 05:55:17;;;;;;;;;;;1.40;99.90;;;;;;5110533;28;19954;-69
2022/12/07 05:59:22;;;;;;;;;;;1.50;99.90;;;;;;5110028;28;19954;-68
2022/12/07 06:00:29;;;;;;;;;;;1.50;99.90;;;;;;5109208;28;19927;-70
2022/12/07 06:02:56;;;;;;;;;;;1.50;99.90;;;;;;5110434;28;19916;-68
2022/12/07 06:05:22;;;;;;;;;;;1.60;99.90;;;;;;5110163;28;19962;-70
2022/12/07 06:07:50;;;;;;;;;;;1.60;99.90;;;;;;5110217;28;19948;-68
2022/12/07 06:10:17;;;;;;;;;;;1.60;99.90;;;;;;5110155;28;19987;-70
2022/12/07 06:12:45;;;;;;;;;;;1.60;99.90;;;;;;5110297;28;19959;-70
2022/12/07 06:15:12;;;;;;;;;;;1.60;99.90;;;;;;5110129;28;19916;-70
2022/12/07 06:17:43;;;;;;;;;;;1.70;99.90;;;;;;5109785;28;19987;-72
2022/12/07 06:20:10;;;;;;;;;;;1.60;99.90;;;;;;5109912;28;20211;-71
2022/12/07 06:22:36;;;;;;;;;;;1.60;99.90;;;;;;5109629;28;19991;-68
2022/12/07 06:25:05;;;;;;;;;;;1.70;99.90;;;;;;5110103;28;19951;-72
2022/12/07 06:27:32;;;;;;;;;;;1.70;99.90;;;;;;5109378;28;19959;-69
2022/12/07 06:29:59;;;;;;;;;;;1.80;99.90;;;;;;5110157;28;19943;-70
2022/12/07 06:32:26;;;;;;;;;;;1.80;99.90;;;;;;5110107;28;19977;-71
2022/12/07 06:34:52;;;;;;;;;;;1.80;99.90;;;;;;5110172;28;20111;-69
2022/12/07 06:37:20;;;;;;;;;;;1.80;99.90;;;;;;5107884;28;19974;-70
2022/12/07 06:39:47;;;;;;;;;;;1.80;99.90;;;;;;5110138;28;19956;-69
2022/12/07 06:42:15;;;;;;;;;;;1.80;99.90;;;;;;5109936;28;19967;-70
2022/12/07 06:44:41;;;;;;;;;;;1.80;99.90;;;;;;5110069;28;19955;-72
2022/12/07 06:47:09;;;;;;;;;;;1.80;99.90;;;;;;5108958;28;19955;-70
2022/12/07 06:49:35;;;;;;;;;;;1.80;99.90;;;;;;5105599;28;20088;-70
2022/12/07 06:52:04;;;;;;;;;;;1.90;99.90;;;;;;5104101;28;19955;-70
2022/12/07 06:54:31;;;;;;;;;;;1.90;99.90;;;;;;5106647;28;19927;-71
2022/12/07 06:56:57;;;;;;;;;;;1.90;99.90;;;;;;5106070;28;19955;-71
2022/12/07 06:59:25;;;;;;;;;;;1.90;99.90;;;;;;5106735;28;19956;-71
2022/12/07 07:01:52;;;;;;;;;;;1.90;99.90;;;;;;5106598;28;19983;-71
2022/12/07 07:04:19;;;;;;;;;;;1.90;99.90;;;;;;5106772;28;20169;-71
2022/12/07 07:06:46;;;;;;;;;;;1.90;99.90;;;;;;5105521;28;19967;-69
2022/12/07 07:09:13;;;;;;;;;;;1.90;99.90;;;;;;5106150;28;20208;-71
2022/12/07 07:11:40;;;;;;;;;;;1.90;99.90;;;;;;5106422;28;19987;-71
2022/12/07 07:14:06;;;;;;;;;;;1.80;99.90;;;;;;5100628;28;20011;-71
2022/12/07 07:16:34;;;;;;;;;;;1.80;99.90;;;;;;5105386;28;20111;-71
2022/12/07 07:19:01;;;;;;;;;;;1.90;99.90;;;;;;5106442;28;20538;-71
2022/12/07 07:21:27;;;;;;;;;;;1.90;99.90;;;;;;5124210;28;19920;-71
2022/12/07 07:23:54;;;;;;;;;;;1.90;99.90;;;;;;5106235;28;19951;-71
2022/12/07 07:26:21;;;;;;;;;;;1.90;99.90;;;;;;5092131;28;19955;-73
2022/12/07 07:28:47;;;;;;;;;;;1.90;99.90;;;;;;5085741;28;19963;-71
2022/12/07 07:31:17;;;;;;;;;;;1.90;99.90;;;;;;5096636;28;19920;-71
2022/12/07 07:33:45;;;;;;;;;;;1.90;99.90;;;;;;5085390;28;19927;-70
2022/12/07 07:36:12;;;;;;;;;;;2.00;99.90;;;;;;5084925;28;20134;-71
2022/12/07 07:38:39;;;;;;;;;;;2.00;99.90;;;;;;5085439;28;19952;-71
2022/12/07 07:41:05;;;;;;;;;;;2.00;99.90;;;;;;5085202;28;19944;-71
2022/12/07 07:43:33;;;;;;;;;;;2.00;99.90;;;;;;5083743;28;19956;-71
2022/12/07 07:45:59;;;;;;;;;;;2.00;99.90;;;;;;5084974;28;19927;-71
2022/12/07 07:48:26;;;;;;;;;;;2.00;99.90;;;;;;5098595;28;19985;-71
2022/12/07 07:51:00;;;;;;;;;;;2.00;99.90;;;;;;5103016;28;20155;-69
2022/12/07 07:53:28;;;;;;;;;;;2.00;99.90;;;;;;5105588;28;19962;-71
2022/12/07 07:55:55;;;;;;;;;;;2.00;99.90;;;;;;5105267;28;19963;-70
2022/12/07 07:58:22;;;;;;;;;;;2.00;99.90;;;;;;5105192;28;19955;-71
2022/12/07 08:00:54;;;;;;;;;;;2.00;99.90;;;;;;5101595;28;19990;-71
2022/12/07 08:03:21;;;;;;;;;;;2.00;99.90;;;;;;5105095;28;19920;-69
2022/12/07 08:05:48;;;;;;;;;;;2.10;99.90;;;;;;5104625;28;20226;-72
2022/12/07 08:08:15;;;;;;;;;;;2.10;99.90;;;;;;5104906;28;19983;-72
2022/12/07 08:10:43;;;;;;;;;;;2.00;99.90;;;;;;5105134;28;19920;-72
2022/12/07 08:13:13;;;;;;;;;;;2.10;99.90;;;;;;5105192;28;19990;-71
2022/12/07 08:15:41;;;;;;;;;;;2.10;99.90;;;;;;5088809;28;20216;-70
2022/12/07 08:18:07;;;;;;;;;;;2.20;99.90;;;;;;5084442;28;19962;-69
2022/12/07 08:20:35;;;;;;;;;;;2.20;99.90;;;;;;5084759;28;19962;-70
2022/12/07 08:23:02;;;;;;;;;;;2.30;99.90;;;;;;5101630;28;19951;-71
2022/12/07 08:25:29;;;;;;;;;;;2.30;99.90;;;;;;5104916;28;19987;-70
2022/12/07 08:27:57;;;;;;;;;;;2.30;99.90;;;;;;5103787;28;20262;-70
2022/12/07 08:30:23;;;;;;;;;;;2.40;99.90;;;;;;5104916;28;19974;-70
2022/12/07 08:32:50;;;;;;;;;;;2.40;99.90;;;;;;5104543;28;20191;-71
2022/12/07 08:35:17;;;;;;;;;;;2.40;99.90;;;;;;5104398;28;19955;-70
2022/12/07 08:37:44;;;;;;;;;;;2.30;99.90;;;;;;5104001;28;20329;-70
2022/12/07 08:40:14;;;;;;;;;;;2.30;99.90;;;;;;5104227;28;19967;-71
2022/12/07 08:42:41;;;;;;;;;;;2.40;99.90;;;;;;5104622;28;19920;-70
2022/12/07 08:45:11;;;;;;;;;;;2.30;99.90;;;;;;5104585;28;19920;-70
2022/12/07 08:47:39;;;;;;;;;;;2.30;99.90;;;;;;5103982;28;19935;-70
2022/12/07 08:50:07;;;;;;;;;;;2.30;99.90;;;;;;5104029;28;19961;-70
2022/12/07 08:52:34;;;;;;;;;;;2.40;99.90;;;;;;5103978;28;20230;-71
2022/12/07 08:55:01;;;;;;;;;;;2.40;99.90;;;;;;5104143;28;19920;-70
2022/12/07 08:57:28;;;;;;;;;;;2.40;99.90;;;;;;5103838;28;19983;-71
2022/12/07 08:59:55;;;;;;;;;;;2.40;99.90;;;;;;5104326;28;19956;-70
2022/12/07 09:02:24;;;;;;;;;;;2.40;99.90;;;;;;5101536;28;20168;-71
2022/12/07 09:04:51;;;;;;;;;;;2.50;99.90;;;;;;5103978;28;20257;-70
2022/12/07 09:07:17;;;;;;;;;;;2.50;99.90;;;;;;5103283;28;19999;-70
2022/12/07 09:09:44;;;;;;;;;;;2.50;99.90;;;;;;5104265;28;19954;-71
2022/12/07 09:12:11;;;;;;;;;;;2.50;99.90;;;;;;5103524;28;20188;-70
2022/12/07 09:14:37;;;;;;;;;;;2.50;99.90;;;;;;5099324;28;19924;-71
2022/12/07 09:17:08;;;;;;;;;;;2.40;99.90;;;;;;5097974;28;19951;-71
2022/12/07 09:19:36;;;;;;;;;;;2.50;99.90;;;;;;5103907;28;19927;-71
2022/12/07 09:22:04;;;;;;;;;;;2.40;99.90;;;;;;5103583;28;19987;-71
2022/12/07 09:24:31;;;;;;;;;;;2.50;99.90;;;;;;5104063;28;19952;-71
2022/12/07 09:26:58;;;;;;;;;;;2.50;99.90;;;;;;5103379;28;19952;-70
2022/12/07 09:29:24;;;;;;;;;;;2.50;99.90;;;;;;5103935;28;19920;-71
2022/12/07 09:31:51;;;;;;;;;;;2.50;99.90;;;;;;5103843;28;19987;-71
2022/12/07 09:34:18;;;;;;;;;;;2.40;99.90;;;;;;5104001;28;19959;-71
2022/12/07 09:36:46;;;;;;;;;;;2.50;99.90;;;;;;5102813;28;19920;-71
2022/12/07 09:39:13;;;;;;;;;;;2.50;99.90;;;;;;5103651;28;20164;-71
2022/12/07 09:41:40;;;;;;;;;;;2.50;99.90;;;;;;5103713;28;19983;-71
2022/12/07 09:44:08;;;;;;;;;;;2.50;99.90;;;;;;5103810;28;19958;-71
2022/12/07 09:46:36;;;;;;;;;;;2.50;99.90;;;;;;5103072;28;20170;-71
2022/12/07 09:49:03;;;;;;;;;;;2.50;99.90;;;;;;5103354;28;19973;-71
2022/12/07 09:51:29;;;;;;;;;;;2.50;99.90;;;;;;5103755;28;19982;-71
2022/12/07 09:53:58;;;;;;;;;;;2.50;99.90;;;;;;5103758;28;19983;-71
2022/12/07 09:56:25;;;;;;;;;;;2.50;99.90;;;;;;5102661;28;19950;-72
2022/12/07 09:58:55;;;;;;;;;;;2.60;99.90;;;;;;5103700;28;19977;-72
2022/12/07 10:01:23;;;;;;;;;;;2.60;99.90;;;;;;5101141;28;20003;-71
2022/12/07 10:03:50;;;;;;;;;;;2.50;99.90;;;;;;5103224;28;19978;-71
2022/12/07 10:06:17;;;;;;;;;;;2.60;99.90;;;;;;5102621;28;19980;-70
2022/12/07 10:08:44;;;;;;;;;;;2.50;99.90;;;;;;5103225;28;20111;-71
2022/12/07 10:11:14;;;;;;;;;;;2.60;99.90;;;;;;5103297;28;20231;-71
2022/12/07 10:13:42;;;;;;;;;;;2.60;99.90;;;;;;5103744;28;19924;-70
2022/12/07 10:16:28;;;;;;;;;;;2.60;99.90;;;;;;5102639;28;19932;-70
2022/12/07 10:18:55;;;;;;;;;;;2.60;99.90;;;;;;5103259;28;19952;-72
2022/12/07 10:21:23;;;;;;;;;;;2.60;99.90;;;;;;5103512;28;19947;-71
2022/12/07 10:24:00;;;;;;;;;;;2.60;99.90;;;;;;5106516;28;19927;-71
2022/12/07 10:26:30;;;;;;;;;;;2.50;99.90;;;;;;5106237;28;19920;-70
2022/12/07 10:28:57;;;;;;;;;;;2.60;99.90;;;;;;5107100;28;19987;-71
2022/12/07 10:31:24;;;;;;;;;;;2.60;99.90;;;;;;5107130;28;19956;-70
2022/12/07 10:33:51;;;;;;;;;;;2.60;99.90;;;;;;5107130;28;19947;-71
2022/12/07 10:36:20;;;;;;;;;;;2.60;99.90;;;;;;5106430;28;19924;-71
2022/12/07 10:38:48;;;;;;;;;;;2.60;99.90;;;;;;5106982;28;20263;-69
2022/12/07 10:41:16;;;;;;;;;;;2.60;99.90;;;;;;5104370;28;19955;-70
2022/12/07 10:43:51;;;;;;;;;;;2.70;99.90;;;;;;5106687;28;19920;-70
2022/12/07 10:46:24;;;;;;;;;;;2.70;99.90;;;;;;5106278;28;19958;-68
2022/12/07 10:48:54;;;;;;;;;;;2.70;99.90;;;;;;5106473;28;19950;-70
2022/12/07 10:51:25;;;;;;;;;;;2.70;99.90;;;;;;5106603;28;19987;-70
2022/12/07 10:53:56;;;;;;;;;;;2.60;99.90;;;;;;5106482;28;19920;-70
2022/12/07 10:56:30;;;;;;;;;;;2.60;99.90;;;;;;5105782;28;19956;-69
2022/12/07 10:59:05;;;;;;;;;;;2.70;99.90;;;;;;5106351;28;20088;-70
2022/12/07 11:01:34;;;;;;;;;;;2.70;99.90;;;;;;5106641;28;20159;-70
2022/12/07 11:04:09;;;;;;;;;;;2.70;99.90;;;;;;5102016;28;19947;-70
2022/12/07 11:06:38;;;;;;;;;;;2.70;99.90;;;;;;5104694;28;19963;-70
2022/12/07 11:09:15;;;;;;;;;;;2.70;99.90;;;;;;5106529;28;19920;-70
2022/12/07 11:11:45;;;;;;;;;;;2.70;99.90;;;;;;5096383;28;19956;-70
2022/12/07 11:14:19;;;;;;;;;;;2.80;99.90;;;;;;5096738;28;20169;-69
2022/12/07 11:16:52;;;;;;;;;;;2.70;99.90;;;;;;5102894;28;19996;-69
2022/12/07 11:19:31;;;;;;;;;;;2.70;99.90;;;;;;5105611;28;19946;-70
2022/12/07 11:21:58;;;;;;;;;;;2.70;99.90;;;;;;5106148;28;19952;-69
2022/12/07 11:24:28;;;;;;;;;;;2.70;99.90;;;;;;5102854;28;20241;-69
2022/12/07 11:27:03;;;;;;;;;;;2.70;99.90;;;;;;5105581;28;19951;-70
2022/12/07 11:29:40;;;;;;;;;;;2.70;99.90;;;;;;5105621;28;19947;-70
2022/12/07 11:32:11;;;;;;;;;;;2.70;99.90;;;;;;5106157;28;19947;-69
2022/12/07 11:34:40;;;;;;;;;;;2.80;99.90;;;;;;5105305;28;19958;-69
2022/12/07 11:37:12;;;;;;;;;;;2.80;99.90;;;;;;5104817;28;19988;-70
2022/12/07 11:39:42;;;;;;;;;;;2.80;99.90;;;;;;5105567;28;19926;-70
2022/12/07 11:42:13;;;;;;;;;;;2.80;99.90;;;;;;5105849;28;19983;-70
2022/12/07 11:44:46;;;;;;;;;;;2.70;99.90;;;;;;5105831;28;19959;-69
2022/12/07 11:47:17;;;;;;;;;;;2.70;99.90;;;;;;5104997;28;20033;-71
2022/12/07 11:49:46;;;;;;;;;;;2.70;99.90;;;;;;5105609;28;19992;-71
2022/12/07 11:52:18;;;;;;;;;;;2.80;99.90;;;;;;5105569;28;19927;-71
2022/12/07 11:54:45;;;;;;;;;;;2.80;99.90;;;;;;5104287;28;19934;-71
2022/12/07 11:57:15;;;;;;;;;;;2.80;99.90;;;;;;5104135;28;19956;-71
2022/12/07 11:59:46;;;;;;;;;;;2.80;99.90;;;;;;5105136;28;19985;-70
2022/12/07 12:02:15;;;;;;;;;;;2.80;99.90;;;;;;5105005;28;19974;-69
2022/12/07 12:04:46;;;;;;;;;;;2.80;99.90;;;;;;5099113;28;20175;-71
2022/12/07 12:07:16;;;;;;;;;;;2.70;99.90;;;;;;5104609;28;20231;-70
2022/12/07 12:09:46;;;;;;;;;;;2.70;99.90;;;;;;5105080;28;20260;-71
2022/12/07 12:12:22;;;;;;;;;;;2.80;99.90;;;;;;5103913;28;19924;-69
2022/12/07 12:14:54;;;;;;;;;;;2.70;99.90;;;;;;5104277;28;19983;-69
2022/12/07 12:17:40;;;;;;;;;;;2.70;99.90;;;;;;5104467;28;19958;-70
2022/12/07 12:20:08;;;;;;;;;;;2.70;99.90;;;;;;5104725;28;19947;-69
2022/12/07 12:22:37;;;;;;;;;;;2.60;99.90;;;;;;5104045;28;20227;-69
2022/12/07 12:25:06;;;;;;;;;;;2.70;99.90;;;;;;5104965;28;19924;-69
2022/12/07 12:27:34;;;;;;;;;;;2.70;99.90;;;;;;5104126;28;19920;-69
2022/12/07 12:30:24;;;;;;;;;;;2.70;99.90;;;;;;5102419;28;19974;-69
2022/12/07 12:32:50;;;;;;;;;;;2.60;99.90;;;;;;5104717;28;20380;-69
2022/12/07 12:35:31;;;;;;;;;;;2.60;99.90;;;;;;5104808;28;19958;-68
2022/12/07 12:38:12;;;;;;;;;;;2.60;99.90;;;;;;5103813;28;19927;-69
2022/12/07 12:40:40;;;;;;;;;;;2.60;99.90;;;;;;5103857;28;19955;-68
2022/12/07 12:43:22;;;;;;;;;;;2.60;99.90;;;;;;5099153;28;19983;-69
2022/12/07 12:45:50;;;;;;;;;;;2.60;99.90;;;;;;5090355;28;19960;-70
2022/12/07 12:48:28;;;;;;;;;;;2.70;99.90;;;;;;5096147;28;20369;-70
2022/12/07 12:51:10;;;;;;;;;;;2.70;99.90;;;;;;5104566;28;19979;-70
2022/12/07 12:53:36;;;;;;;;;;;2.70;99.90;;;;;;5083170;28;19987;-70
2022/12/07 12:56:21;;;;;;;;;;;2.80;99.90;;;;;;5083649;28;19963;-70
2022/12/07 12:58:48;;;;;;;;;;;2.80;99.90;;;;;;5083921;28;19981;-70
2022/12/07 13:01:29;;;;;;;;;;;2.80;99.90;;;;;;5083588;28;19920;-70
2022/12/07 13:03:58;;;;;;;;;;;2.80;99.90;;;;;;5066956;28;19959;-70
2022/12/07 13:06:37;;;;;;;;;;;2.80;99.90;;;;;;5103476;28;20223;-70
2022/12/07 13:09:05;;;;;;;;;;;2.90;99.90;;;;;;5104762;28;20096;-72
2022/12/07 13:11:33;;;;;;;;;;;2.90;99.90;;;;;;5108477;28;19920;-70
2022/12/07 13:14:18;;;;;;;;;;;2.90;99.90;;;;;;5107742;28;19991;-71
2022/12/07 13:16:45;;;;;;;;;;;2.80;99.90;;;;;;5106373;28;19956;-72
2022/12/07 13:19:31;;;;;;;;;;;2.80;99.90;;;;;;5102609;28;19928;-70
2022/12/07 13:21:59;;;;;;;;;;;2.80;99.90;;;;;;5087269;28;19925;-73
2022/12/07 13:24:26;;;;;;;;;;;2.80;99.90;;;;;;5087584;28;19920;-72
2022/12/07 13:26:56;;;;;;;;;;;2.90;99.90;;;;;;5086668;28;19921;-73
2022/12/07 13:29:23;;;;;;;;;;;2.90;99.90;;;;;;5083652;28;19955;-69
2022/12/07 13:31:51;;;;;;;;;;;2.90;99.90;;;;;;5086039;28;19926;-70
2022/12/07 13:34:31;;;;;;;;;;;3.00;99.90;;;;;;5084524;28;19921;-70
2022/12/07 13:36:59;;;;;;;;;;;3.00;99.90;;;;;;5084853;28;20376;-71
2022/12/07 13:39:26;;;;;;;;;;;3.00;99.90;;;;;;5084957;28;19920;-70
2022/12/07 13:41:54;;;;;;;;;;;3.00;99.90;;;;;;5083985;28;19927;-69
2022/12/07 13:44:22;;;;;;;;;;;3.00;99.90;;;;;;5083238;28;19920;-70
2022/12/07 13:46:53;;;;;;;;;;;3.00;99.90;;;;;;5083045;28;19920;-70
2022/12/07 13:49:21;;;;;;;;;;;3.00;99.90;;;;;;5086821;28;19920;-72
2022/12/07 13:51:48;;;;;;;;;;;3.00;99.90;;;;;;5096192;28;19927;-70
2022/12/07 13:54:16;;;;;;;;;;;3.00;99.90;;;;;;5107092;28;19920;-72
2022/12/07 13:56:43;;;;;;;;;;;3.00;99.90;;;;;;5106998;28;19920;-69
2022/12/07 13:59:18;;;;;;;;;;;3.00;99.90;;;;;;5110598;28;19974;-72
2022/12/07 14:01:47;;;;;;;;;;;3.00;99.90;;;;;;5111498;28;19927;-70
2022/12/07 14:04:24;;;;;;;;;;;2.90;99.90;;;;;;5110016;28;19928;-72
2022/12/07 14:06:52;;;;;;;;;;;2.90;99.90;;;;;;5111949;28;19920;-73
2022/12/07 14:09:22;;;;;;;;;;;2.90;99.90;;;;;;5107340;28;19948;-70
2022/12/07 14:11:50;;;;;;;;;;;2.90;99.90;;;;;;5107347;28;20016;-73
2022/12/07 14:14:19;;;;;;;;;;;2.90;99.90;;;;;;5111249;28;19920;-73
2022/12/07 14:16:55;;;;;;;;;;;2.90;99.90;;;;;;5111116;28;20211;-73
2022/12/07 14:19:41;;;;;;;;;;;2.90;99.90;;;;;;5111413;28;19957;-70
2022/12/07 14:22:10;;;;;;;;;;;3.00;99.90;;;;;;5112155;28;19923;-73
2022/12/07 14:24:43;;;;;;;;;;;3.00;99.90;;;;;;5111643;28;19920;-71
2022/12/07 14:27:17;;;;;;;;;;;3.00;99.90;;;;;;5112674;28;19920;-71
2022/12/07 14:29:44;;;;;;;;;;;3.00;99.90;;;;;;5111259;28;19958;-72
2022/12/07 14:32:20;;;;;;;;;;;3.00;99.90;;;;;;5111411;28;19927;-72
2022/12/07 14:34:57;;;;;;;;;;;2.90;99.90;;;;;;5110706;28;19920;-72
2022/12/07 14:37:25;;;;;;;;;;;3.00;99.90;;;;;;5110270;28;19920;-71
2022/12/07 14:39:53;;;;;;;;;;;3.00;99.90;;;;;;5110808;28;19951;-73
2022/12/07 14:42:22;;;;;;;;;;;2.90;99.90;;;;;;5111111;28;19924;-73